This is the latest recevied weather packets stored in our database for station/object KB6HGN. If no packets are shown the sender has not sent any weather packets the latest 10 day(s).
| Time | Temp. | Humidity | Pressure | Rain* | Wind** | Luminosity | Snow |
|---|---|---|---|---|---|---|---|
| 1777648205 | 15.56° C | 83% | 1015.6 hPa | 0 mm | - | 184 W/m² | - |
| 1777646705 | 15° C | 84% | 1015.6 hPa | 0 mm | - | 71 W/m² | - |
| 1777644004 | 14.44° C | 86% | 1015.2 hPa | 0 mm | - | 11 W/m² | - |
| 1777639504 | 13.89° C | 86% | 1014.5 hPa | 0 mm | - | 0 W/m² | - |
| 1777636804 | 13.33° C | 84% | 1014.2 hPa | 0 mm | - | 0 W/m² | - |
| 1777635604 | 13.33° C | 84% | 1014.2 hPa | 0 mm | - | 0 W/m² | - |
| 1777629904 | 14.44° C | 81% | 1014.2 hPa | 0 mm | - | 0 W/m² | - |
| 1777629304 | 14.44° C | 81% | 1014.2 hPa | 0 mm | - | 0 W/m² | - |
| 1777623305 | 15° C | 76% | 1014.2 hPa | 0 mm | - | 0 W/m² | - |
| 1777617605 | 16.67° C | 73% | 1014.2 hPa | 0 mm | - | 0 W/m² | - |
| 1777616404 | 16.67° C | 71% | 1013.9 hPa | 0 mm | - | 0 W/m² | - |
| 1777615206 | 16.67° C | 70% | 1013.9 hPa | 0 mm | - | 0 W/m² | - |
| 1777612206 | 17.22° C | 68% | 1013.9 hPa | 0 mm | - | 0 W/m² | - |
| 1777605604 | 18.89° C | 62% | 1012.5 hPa | 0 mm | - | 0 W/m² | - |
| 1777604404 | 18.89° C | 60% | 1012.2 hPa | 0 mm | - | 0 W/m² | - |
| 1777604105 | 18.89° C | 60% | 1012.2 hPa | 0 mm | - | 0 W/m² | - |
| 1777603504 | 19.44° C | 59% | 1012.1 hPa | 0 mm | - | 0 W/m² | - |
| 1777601405 | 20.56° C | 55% | 1011.5 hPa | 0 mm | - | 2 W/m² | - |
| 1777600504 | 20.56° C | 54% | 1011.5 hPa | 0 mm | - | 14 W/m² | - |
| 1777596904 | 22.78° C | 46% | 1011.1 hPa | 0 mm | - | 185 W/m² | - |
| 1777596604 | 23.33° C | 45% | 1011.1 hPa | 0 mm | - | 215 W/m² | - |
| 1777596305 | 23.33° C | 46% | 1011.1 hPa | 0 mm | - | 235 W/m² | - |
| 1777595404 | 23.89° C | 43% | 1010.8 hPa | 0 mm | - | 307 W/m² | - |
| 1777593904 | 24.44° C | 42% | 1010.8 hPa | 0 mm | - | 406 W/m² | - |
| 1777591804 | 25° C | 41% | 1010.5 hPa | 0 mm | - | 534 W/m² | - |
* Rain latest hour (hover to see other rain measurements)
** Current wind speed in m/s (hover to see current wind gust speed)